JST510 YMML-YSSY
Flight info
| Callsign | JST510 |
|---|---|
| Flight time | N/A |
| Altitude | 37000 |
| Route | DOSEL2/34 DOSEL Y59 RIVET |
| Aircraft | A320/M-SDE3FGHIRWY/LB1 |
Departure
| Time | 2026-04-30 12:22 |
|---|---|
| Airport | Melbourne Airport (YMML) |
Arrival
| Time | N/A |
|---|---|
| Airport | Sydney Kingsford Smith International Airport (YSSY) |
| Time | Latitude | Longitude | Altitude | Speed | Heading |
|---|---|---|---|---|---|
| 2026-04-30 11:50 | -37.67610 | 144.84661 | 376 ft | 0 kts | 81° |
| 2026-04-30 11:50 | -37.67610 | 144.84664 | 376 ft | 0 kts | 81° |
| 2026-04-30 12:14 | -37.67612 | 144.84650 | 376 ft | 4 kts | 82° |
| 2026-04-30 12:14 | -37.67616 | 144.84616 | 375 ft | 4 kts | 79° |
| 2026-04-30 12:15 | -37.67622 | 144.84584 | 375 ft | 4 kts | 60° |
| 2026-04-30 12:15 | -37.67637 | 144.84567 | 374 ft | 3 kts | 352° |
| 2026-04-30 12:15 | -37.67662 | 144.84572 | 373 ft | 4 kts | 351° |
| 2026-04-30 12:15 | -37.67684 | 144.84576 | 372 ft | 0 kts | 352° |
| 2026-04-30 12:18 | -37.67656 | 144.84571 | 373 ft | 5 kts | 352° |
| 2026-04-30 12:18 | -37.67619 | 144.84564 | 374 ft | 5 kts | 352° |
| 2026-04-30 12:18 | -37.67581 | 144.84557 | 376 ft | 6 kts | 352° |
| 2026-04-30 12:19 | -37.67541 | 144.84549 | 377 ft | 6 kts | 351° |
| 2026-04-30 12:19 | -37.67500 | 144.84538 | 378 ft | 6 kts | 340° |
| 2026-04-30 12:19 | -37.67468 | 144.84494 | 378 ft | 9 kts | 287° |
| 2026-04-30 12:19 | -37.67475 | 144.84401 | 377 ft | 13 kts | 261° |
| 2026-04-30 12:20 | -37.67541 | 144.84332 | 374 ft | 16 kts | 173° |
| 2026-04-30 12:20 | -37.67661 | 144.84354 | 370 ft | 14 kts | 171° |
| 2026-04-30 12:20 | -37.67745 | 144.84370 | 367 ft | 13 kts | 171° |
| 2026-04-30 12:20 | -37.67830 | 144.84322 | 366 ft | 15 kts | 231° |
| 2026-04-30 12:21 | -37.67862 | 144.84205 | 360 ft | 12 kts | 261° |
| 2026-04-30 12:21 | -37.67877 | 144.84086 | 357 ft | 16 kts | 261° |
| 2026-04-30 12:21 | -37.67872 | 144.83975 | 357 ft | 12 kts | 307° |
| 2026-04-30 12:21 | -37.67720 | 144.83939 | 362 ft | 51 kts | 351° |
| 2026-04-30 12:22 | -37.67151 | 144.83833 | 382 ft | 111 kts | 352° |
| 2026-04-30 12:22 | -37.66248 | 144.83662 | 473 ft | 147 kts | 351° |
| 2026-04-30 12:22 | -37.65270 | 144.83476 | 1117 ft | 140 kts | 352° |
| 2026-04-30 12:22 | -37.64298 | 144.83297 | 1682 ft | 142 kts | 355° |
| 2026-04-30 12:23 | -37.63314 | 144.83114 | 2219 ft | 147 kts | 355° |
| 2026-04-30 12:23 | -37.62219 | 144.82904 | 2460 ft | 171 kts | 354° |
| 2026-04-30 12:23 | -37.60949 | 144.82671 | 2684 ft | 198 kts | 354° |
| 2026-04-30 12:23 | -37.59499 | 144.82474 | 3082 ft | 221 kts | 2° |
| 2026-04-30 12:24 | -37.57956 | 144.82984 | 3670 ft | 239 kts | 23° |
| 2026-04-30 12:24 | -37.56443 | 144.83906 | 4556 ft | 244 kts | 23° |
| 2026-04-30 12:24 | -37.54903 | 144.84854 | 5471 ft | 248 kts | 22° |
| 2026-04-30 12:24 | -37.53340 | 144.85812 | 6379 ft | 251 kts | 22° |
| 2026-04-30 12:25 | -37.51751 | 144.86783 | 7237 ft | 256 kts | 21° |
| 2026-04-30 12:25 | -37.50126 | 144.87771 | 7979 ft | 263 kts | 22° |
| 2026-04-30 12:25 | -37.48460 | 144.88780 | 8747 ft | 268 kts | 21° |
| 2026-04-30 12:25 | -37.46757 | 144.89804 | 9520 ft | 274 kts | 21° |
| 2026-04-30 12:26 | -37.45020 | 144.90851 | 10270 ft | 281 kts | 23° |
| 2026-04-30 12:26 | -37.43383 | 144.92297 | 10615 ft | 306 kts | 40° |
| 2026-04-30 12:26 | -37.41968 | 144.94460 | 10837 ft | 333 kts | 54° |
| 2026-04-30 12:26 | -37.40690 | 144.96934 | 11401 ft | 340 kts | 53° |
| 2026-04-30 12:27 | -37.39347 | 144.99403 | 12118 ft | 343 kts | 52° |
| 2026-04-30 12:27 | -37.37970 | 145.01855 | 12839 ft | 345 kts | 51° |
| 2026-04-30 12:27 | -37.36558 | 145.04328 | 13505 ft | 350 kts | 51° |
| 2026-04-30 12:27 | -37.35129 | 145.06824 | 14202 ft | 354 kts | 51° |
| 2026-04-30 12:28 | -37.33685 | 145.09352 | 14791 ft | 358 kts | 51° |
| 2026-04-30 12:28 | -37.32227 | 145.11909 | 15381 ft | 362 kts | 51° |
| 2026-04-30 12:28 | -37.30756 | 145.14492 | 15953 ft | 366 kts | 51° |
| 2026-04-30 12:28 | -37.29270 | 145.17105 | 16533 ft | 370 kts | 51° |
| 2026-04-30 12:29 | -37.27767 | 145.19752 | 17115 ft | 374 kts | 51° |
| 2026-04-30 12:29 | -37.26250 | 145.22422 | 17694 ft | 378 kts | 51° |
| 2026-04-30 12:29 | -37.24717 | 145.25119 | 18283 ft | 382 kts | 51° |
| 2026-04-30 12:29 | -37.23167 | 145.27845 | 18844 ft | 386 kts | 51° |